createdAt,value
2017-05-09T00:01:32.431Z,3.14
2017-05-09T00:02:32.451Z,3.14
2017-05-09T00:03:32.507Z,3.11
2017-05-09T00:04:32.484Z,3.17
2017-05-09T00:05:47.112Z,3.13
2017-05-09T00:06:32.515Z,3.1
2017-05-09T00:07:32.530Z,3.15
2017-05-09T00:08:47.163Z,3.14
2017-05-09T00:10:32.579Z,3.14
2017-05-09T00:11:32.292Z,3.14
2017-05-09T00:12:32.614Z,3.13
2017-05-09T00:13:32.632Z,3.2
2017-05-09T00:14:32.647Z,3.17
2017-05-09T00:15:32.364Z,3.14
2017-05-09T00:16:32.678Z,3.23
2017-05-09T00:17:32.697Z,3.29
2017-05-09T00:18:32.711Z,3.14
2017-05-09T00:19:32.739Z,3.15
2017-05-09T00:20:32.747Z,3.2
2017-05-09T00:21:32.767Z,3.06
2017-05-09T00:22:32.783Z,3.21
2017-05-09T00:23:47.412Z,3.18
2017-05-09T00:24:32.825Z,3.13
2017-05-09T00:25:32.833Z,3.17
2017-05-09T00:26:32.849Z,3.17
2017-05-09T00:27:32.867Z,3.24
2017-05-09T00:28:32.880Z,3.2
2017-05-09T00:29:32.898Z,3.11
2017-05-09T00:30:47.535Z,3.23
2017-05-09T00:31:47.550Z,3.31
2017-05-09T00:32:32.959Z,3.15
2017-05-09T00:33:32.965Z,3.21
2017-05-09T00:34:32.983Z,3.23
2017-05-09T00:35:47.613Z,3.24
2017-05-09T00:36:33.013Z,3.32
2017-05-09T00:37:33.030Z,3.24
2017-05-09T00:38:33.045Z,3.33
2017-05-09T00:39:33.067Z,3.33
2017-05-09T00:40:32.777Z,3.36
2017-05-09T00:41:33.097Z,3.36
2017-05-09T00:42:33.115Z,3.24
2017-05-09T00:43:33.131Z,3.24
2017-05-09T00:44:33.148Z,3.28
2017-05-09T00:45:33.163Z,3.32
2017-05-09T00:46:33.184Z,3.32
2017-05-09T00:48:33.245Z,3.5
2017-05-09T00:49:47.849Z,3.54
2017-05-09T00:50:33.246Z,3.45
2017-05-09T00:51:33.267Z,3.5
2017-05-09T00:52:33.281Z,3.51
2017-05-09T00:53:33.300Z,3.48
2017-05-09T00:54:33.316Z,3.47
2017-05-09T00:55:47.946Z,3.55
2017-05-09T00:56:33.350Z,3.51
2017-05-09T00:57:33.367Z,3.48
2017-05-09T00:58:33.382Z,3.54
2017-05-09T00:59:33.431Z,3.51
2017-05-09T01:00:33.415Z,3.47
2017-05-09T01:01:33.438Z,3.48
2017-05-09T01:04:33.181Z,3.48
2017-05-09T01:05:33.497Z,3.48
2017-05-09T01:06:33.512Z,3.35
2017-05-09T01:07:33.538Z,3.39
2017-05-09T01:08:33.549Z,3.33
2017-05-09T01:09:33.570Z,3.42
2017-05-09T01:10:33.582Z,3.35
2017-05-09T01:11:48.216Z,3.29
2017-05-09T01:12:33.617Z,3.23
2017-05-09T01:13:33.631Z,3.26
2017-05-09T01:14:33.645Z,3.18
2017-05-09T01:15:33.661Z,3.15
2017-05-09T01:16:33.680Z,3.08
2017-05-09T01:17:33.699Z,3.15
2017-05-09T01:19:33.735Z,3.06
2017-05-09T01:20:33.755Z,3
2017-05-09T01:21:33.767Z,2.97
2017-05-09T01:22:48.396Z,2.96
2017-05-09T01:23:48.411Z,3.05
2017-05-09T01:24:33.510Z,3.05
2017-05-09T01:25:33.828Z,3.03
2017-05-09T01:26:33.848Z,2.9
2017-05-09T01:27:48.478Z,2.93
2017-05-09T01:28:33.882Z,2.93
2017-05-09T01:29:33.895Z,2.84
2017-05-09T01:30:33.914Z,2.82
2017-05-09T01:31:33.931Z,2.85
2017-05-09T01:32:33.946Z,2.78
2017-05-09T01:33:33.959Z,2.93
2017-05-09T01:34:33.978Z,2.79
2017-05-09T01:35:33.993Z,2.81
2017-05-09T01:36:34.015Z,2.79
2017-05-09T01:37:48.645Z,2.77
2017-05-09T01:38:34.045Z,2.71
2017-05-09T01:39:48.675Z,2.64
2017-05-09T01:40:34.078Z,2.71
2017-05-09T01:41:33.795Z,2.67
2017-05-09T01:42:34.111Z,2.74
2017-05-09T01:43:48.741Z,2.66
2017-05-09T01:44:34.143Z,2.81
2017-05-09T01:45:34.158Z,2.61
2017-05-09T01:46:34.176Z,2.69
2017-05-09T01:47:34.193Z,2.71
2017-05-09T01:49:34.226Z,2.71
2017-05-09T01:50:34.240Z,2.75
2017-05-09T01:51:34.256Z,2.74
2017-05-09T01:52:34.277Z,2.57
2017-05-09T01:53:34.290Z,2.6
2017-05-09T01:54:34.307Z,2.56
2017-05-09T01:55:48.939Z,2.54
2017-05-09T01:56:34.340Z,2.56
2017-05-09T01:57:34.357Z,2.6
2017-05-09T01:58:48.684Z,2.57
2017-05-09T01:59:34.390Z,2.53
2017-05-09T02:00:34.410Z,2.48
2017-05-09T02:01:34.423Z,2.52
2017-05-09T02:02:34.439Z,2.53
2017-05-09T02:03:34.457Z,2.49
2017-05-09T02:04:34.477Z,2.59
2017-05-09T02:05:34.486Z,2.56
2017-05-09T02:06:34.505Z,2.53
2017-05-09T02:07:34.521Z,2.6
2017-05-09T02:08:34.536Z,2.56
2017-05-09T02:09:34.554Z,2.53
2017-05-09T02:10:49.184Z,2.46
2017-05-09T02:11:49.200Z,2.41
2017-05-09T02:12:34.602Z,2.38
2017-05-09T02:13:34.619Z,2.38
2017-05-09T02:14:34.640Z,2.46
2017-05-09T02:15:34.650Z,2.46
2017-05-09T02:16:34.704Z,2.53
2017-05-09T02:17:34.682Z,2.49
2017-05-09T02:18:34.700Z,2.49
2017-05-09T02:19:34.415Z,2.49
2017-05-09T02:20:34.733Z,2.63
2017-05-09T02:22:34.767Z,2.54
2017-05-09T02:23:34.790Z,2.56
2017-05-09T02:24:34.800Z,2.48
2017-05-09T02:25:34.813Z,2.46
2017-05-09T02:26:49.444Z,2.48
2017-05-09T02:27:34.856Z,2.48
2017-05-09T02:28:34.864Z,2.49
2017-05-09T02:29:34.879Z,2.49
2017-05-09T02:30:49.513Z,2.52
2017-05-09T02:32:34.932Z,2.46
2017-05-09T02:33:34.944Z,2.46
2017-05-09T02:35:34.975Z,2.49
2017-05-09T02:37:35.012Z,2.52
2017-05-09T02:38:35.026Z,2.52
2017-05-09T02:40:35.057Z,2.49
2017-05-09T02:41:35.074Z,2.56
2017-05-09T02:42:49.709Z,2.56
2017-05-09T02:43:35.107Z,2.61
2017-05-09T02:44:35.125Z,2.71
2017-05-09T02:45:35.140Z,2.67
2017-05-09T02:46:49.769Z,2.75
2017-05-09T02:47:35.179Z,2.71
2017-05-09T02:48:35.190Z,2.81
2017-05-09T02:49:35.239Z,2.81
2017-05-09T02:50:35.218Z,2.81
2017-05-09T02:51:35.235Z,2.85
2017-05-09T02:52:35.262Z,2.87
2017-05-09T02:53:35.268Z,2.99
2017-05-09T02:54:35.286Z,2.95
2017-05-09T02:55:35.299Z,2.97
2017-05-09T02:57:35.365Z,2.96
2017-05-09T02:58:35.350Z,3.03
2017-05-09T02:59:35.365Z,3.06
2017-05-09T03:00:35.383Z,3.08
2017-05-09T03:01:35.396Z,3.14
2017-05-09T03:02:50.030Z,3.15
2017-05-09T03:03:35.433Z,3.2
2017-05-09T03:04:35.448Z,3.13
2017-05-09T03:05:35.462Z,3.32
2017-05-09T03:06:35.479Z,3.17
2017-05-09T03:07:35.494Z,3.26
2017-05-09T03:08:35.513Z,3.33
2017-05-09T03:09:35.529Z,3.36
2017-05-09T03:10:35.550Z,3.43
2017-05-09T03:11:35.561Z,3.42
2017-05-09T03:12:35.278Z,3.43
2017-05-09T03:13:35.594Z,3.52
2017-05-09T03:14:50.226Z,3.42
2017-05-09T03:15:50.241Z,3.43
2017-05-09T03:16:35.643Z,3.45
2017-05-09T03:17:35.663Z,3.55
2017-05-09T03:18:50.291Z,3.52
2017-05-09T03:19:35.695Z,3.58
2017-05-09T03:20:35.709Z,3.61
2017-05-09T03:21:35.726Z,3.52
2017-05-09T03:22:35.740Z,3.55
2017-05-09T03:23:35.763Z,3.57
2017-05-09T03:24:35.774Z,3.66
2017-05-09T03:25:35.794Z,3.6
2017-05-09T03:26:35.812Z,3.7
2017-05-09T03:27:50.443Z,3.65
2017-05-09T03:28:35.841Z,3.8
2017-05-09T03:29:35.857Z,3.84
2017-05-09T03:30:35.876Z,3.79
2017-05-09T03:31:35.892Z,3.84
2017-05-09T03:32:35.909Z,3.79
2017-05-09T03:33:50.541Z,3.86
2017-05-09T03:34:35.947Z,3.76
2017-05-09T03:35:35.655Z,3.87
2017-05-09T03:36:35.975Z,3.83
2017-05-09T03:37:35.993Z,3.84
2017-05-09T03:38:36.040Z,3.87
2017-05-09T03:39:36.022Z,3.94
2017-05-09T03:40:36.044Z,3.9
2017-05-09T03:41:50.677Z,3.94
2017-05-09T03:43:50.706Z,3.97
2017-05-09T03:44:36.115Z,4.18
2017-05-09T03:45:36.125Z,4.08
2017-05-09T03:46:36.145Z,4.16
2017-05-09T03:47:36.157Z,4.11
2017-05-09T03:48:36.180Z,4.09
2017-05-09T03:49:36.191Z,4.16
2017-05-09T03:50:36.208Z,4.18
2017-05-09T03:51:36.230Z,4.22
2017-05-09T03:52:36.238Z,4.27
2017-05-09T03:53:36.260Z,4.29
2017-05-09T03:54:36.272Z,4.23
2017-05-09T03:56:36.310Z,4.36
2017-05-09T03:57:36.325Z,4.37
2017-05-09T03:58:36.346Z,4.36
2017-05-09T03:59:36.359Z,4.32
2017-05-09T04:00:36.375Z,4.37
2017-05-09T04:01:51.007Z,4.4
2017-05-09T04:02:36.410Z,4.4
2017-05-09T04:03:36.424Z,4.42
2017-05-09T04:04:36.441Z,4.41
2017-05-09T04:05:51.074Z,4.52
2017-05-09T04:06:36.779Z,4.45
2017-05-09T04:07:36.494Z,4.5
2017-05-09T04:08:36.203Z,4.67
2017-05-09T04:09:36.525Z,4.66
2017-05-09T04:10:36.544Z,4.69
2017-05-09T04:11:36.559Z,4.63
2017-05-09T04:12:36.576Z,4.67
2017-05-09T04:13:36.598Z,4.67
2017-05-09T04:14:36.648Z,4.65
2017-05-09T04:16:36.645Z,4.72
2017-05-09T04:17:51.277Z,4.65
2017-05-09T04:18:36.684Z,4.69
2017-05-09T04:19:36.727Z,4.72
2017-05-09T04:20:36.712Z,4.7
2017-05-09T04:21:51.344Z,4.73
2017-05-09T04:22:36.750Z,4.69
2017-05-09T04:23:36.761Z,4.77
2017-05-09T04:24:36.781Z,4.86
2017-05-09T04:25:36.799Z,4.77
2017-05-09T04:26:36.817Z,4.82
2017-05-09T04:27:36.834Z,4.8
2017-05-09T04:28:36.851Z,4.96
2017-05-09T04:31:36.900Z,4.94
2017-05-09T04:32:36.918Z,4.96
2017-05-09T04:33:36.938Z,5.03
2017-05-09T04:34:36.953Z,4.92
2017-05-09T04:35:36.970Z,5.03
2017-05-09T04:36:36.986Z,5.1
2017-05-09T04:37:51.617Z,5.07
2017-05-09T04:38:37.019Z,5.09
2017-05-09T04:39:37.070Z,5.13
2017-05-09T04:40:37.055Z,5.18
2017-05-09T04:41:37.071Z,5.17
2017-05-09T04:42:37.087Z,5.22
2017-05-09T04:43:37.107Z,5.22
2017-05-09T04:44:37.130Z,5.27
2017-05-09T04:45:37.141Z,5.3
2017-05-09T04:46:37.167Z,5.35
2017-05-09T04:47:51.793Z,5.39
2017-05-09T04:48:37.195Z,5.36
2017-05-09T04:49:37.211Z,5.35
2017-05-09T04:50:51.842Z,5.36
2017-05-09T04:51:36.949Z,5.45
2017-05-09T04:52:37.268Z,5.4
2017-05-09T04:53:51.896Z,5.42
2017-05-09T04:54:37.297Z,5.38
2017-05-09T04:55:37.316Z,5.39
2017-05-09T04:56:37.331Z,5.39
2017-05-09T04:57:37.350Z,5.46
2017-05-09T04:58:37.373Z,5.42
2017-05-09T04:59:37.384Z,5.45
2017-05-09T05:00:37.400Z,5.43
2017-05-09T05:01:37.428Z,5.39
2017-05-09T05:02:37.439Z,5.45
2017-05-09T05:03:37.463Z,5.49
2017-05-09T05:04:37.472Z,5.53
2017-05-09T05:05:52.105Z,5.53
2017-05-09T05:06:37.508Z,5.61
2017-05-09T05:07:37.527Z,5.65
2017-05-09T05:08:52.160Z,5.6
2017-05-09T05:09:37.563Z,5.63
2017-05-09T05:10:37.580Z,5.6
2017-05-09T05:11:37.601Z,5.71
2017-05-09T05:12:37.615Z,5.75
2017-05-09T05:13:37.638Z,5.83
2017-05-09T05:14:37.649Z,5.94
2017-05-09T05:15:37.671Z,5.9
2017-05-09T05:17:37.704Z,6.06
2017-05-09T05:18:37.722Z,6.03
2017-05-09T05:19:37.741Z,6.08
2017-05-09T05:20:37.756Z,6.14
2017-05-09T05:21:52.389Z,6.08
2017-05-09T05:22:37.790Z,6.15
2017-05-09T05:23:37.823Z,6.17
2017-05-09T05:24:37.827Z,6.25
2017-05-09T05:25:37.845Z,6.31
2017-05-09T05:26:37.558Z,6.33
2017-05-09T05:27:37.880Z,6.41
2017-05-09T05:28:37.904Z,6.48
2017-05-09T05:29:37.915Z,6.55
2017-05-09T05:30:37.940Z,6.66
2017-05-09T05:33:37.987Z,6.54
2017-05-09T05:34:38.006Z,6.69
2017-05-09T05:35:38.024Z,6.67
2017-05-09T05:36:38.046Z,6.74
2017-05-09T05:37:52.677Z,6.79
2017-05-09T05:38:38.079Z,6.73
2017-05-09T05:39:38.099Z,6.87
2017-05-09T05:40:52.735Z,6.88
2017-05-09T05:41:38.136Z,6.98
2017-05-09T05:42:38.154Z,7.05
2017-05-09T05:43:38.172Z,7.07
2017-05-09T05:44:38.188Z,7.16
2017-05-09T05:45:38.208Z,7.09
2017-05-09T05:47:38.245Z,7.07
2017-05-09T05:50:38.300Z,7.13
2017-05-09T05:51:38.519Z,7.25
2017-05-09T05:52:38.335Z,7.17
2017-05-09T05:53:38.354Z,7.25
2017-05-09T05:54:38.373Z,7.27
2017-05-09T05:55:38.393Z,7.42
2017-05-09T05:56:53.026Z,7.55
2017-05-09T05:57:38.434Z,7.46
2017-05-09T05:58:38.447Z,7.48
2017-05-09T05:59:38.466Z,7.5
2017-05-09T06:00:38.486Z,7.49
2017-05-09T06:01:53.125Z,7.58
2017-05-09T06:02:38.520Z,7.63
2017-05-09T06:03:38.543Z,7.57
2017-05-09T06:04:38.563Z,7.57
2017-05-09T06:05:38.578Z,7.5
2017-05-09T06:07:53.233Z,7.64
2017-05-09T06:08:52.946Z,7.58
2017-05-09T06:09:38.651Z,7.64
2017-05-09T06:10:38.670Z,7.77
2017-05-09T06:11:38.688Z,7.79
2017-05-09T06:12:53.325Z,7.63
2017-05-09T06:13:38.426Z,7.63
2017-05-09T06:14:38.747Z,7.86
2017-05-09T06:15:38.765Z,7.82
2017-05-09T06:16:38.783Z,7.93
2017-05-09T06:17:38.801Z,8.01
2017-05-09T06:18:38.828Z,8.15
2017-05-09T06:19:38.841Z,8.15
2017-05-09T06:20:38.857Z,8.23
2017-05-09T06:21:38.884Z,8.29
2017-05-09T06:22:38.897Z,8.36
2017-05-09T06:23:38.613Z,8.38
2017-05-09T06:24:38.938Z,8.47
2017-05-09T06:25:38.954Z,8.65
2017-05-09T06:26:38.976Z,8.56
2017-05-09T06:27:38.994Z,8.7
2017-05-09T06:28:53.628Z,8.79
2017-05-09T06:29:39.035Z,8.86
2017-05-09T06:30:39.052Z,8.99
2017-05-09T06:31:39.069Z,9.08
2017-05-09T06:32:39.092Z,9.13
2017-05-09T06:33:39.109Z,9.29
2017-05-09T06:34:39.128Z,9.4
2017-05-09T06:36:39.170Z,9.4
2017-05-09T06:37:39.187Z,9.42
2017-05-09T06:38:39.207Z,9.39
2017-05-09T06:39:39.227Z,9.35
2017-05-09T06:40:53.863Z,9.32
2017-05-09T06:41:39.267Z,9.39
2017-05-09T06:42:39.287Z,9.51
2017-05-09T06:43:53.924Z,9.83
2017-05-09T06:44:39.329Z,9.99
2017-05-09T06:45:39.347Z,10.11
2017-05-09T06:46:39.368Z,10.12
2017-05-09T06:47:39.391Z,10.15
2017-05-09T06:48:39.409Z,10.36
2017-05-09T06:50:39.452Z,10.66
2017-05-09T06:51:39.469Z,10.71
2017-05-09T06:52:39.492Z,10.92
2017-05-09T06:53:39.512Z,10.88
2017-05-09T06:54:39.533Z,11
2017-05-09T06:55:39.552Z,11.14
2017-05-09T06:56:39.572Z,11.17
2017-05-09T06:57:39.601Z,11.19
2017-05-09T06:58:39.614Z,11.15
2017-05-09T06:59:39.636Z,11
2017-05-09T07:00:39.658Z,11.02
2017-05-09T07:01:39.682Z,11.11
2017-05-09T07:02:39.702Z,11.14
2017-05-09T07:03:39.417Z,11.24
2017-05-09T07:04:39.741Z,11.25
2017-05-09T07:05:39.762Z,11.44
2017-05-09T07:06:39.783Z,11.39
2017-05-09T07:07:39.808Z,11.69
2017-05-09T07:08:39.826Z,11.94
2017-05-09T07:09:39.848Z,11.9
2017-05-09T07:10:39.880Z,11.78
2017-05-09T07:11:39.589Z,11.69
2017-05-09T07:12:39.611Z,11.55
2017-05-09T07:13:39.634Z,11.61
2017-05-09T07:14:39.962Z,11.35
2017-05-09T07:15:54.596Z,11.55
2017-05-09T07:16:39.700Z,11.73
2017-05-09T07:17:39.723Z,12.13
2017-05-09T07:18:40.046Z,12.34
2017-05-09T07:19:40.070Z,12.35
2017-05-09T07:20:39.790Z,12.31
2017-05-09T07:22:40.136Z,12.74
2017-05-09T07:23:40.160Z,12.74
2017-05-09T07:24:40.178Z,13.03
2017-05-09T07:25:39.902Z,13.39
2017-05-09T07:26:40.230Z,13.78
2017-05-09T07:27:40.249Z,14.06
2017-05-09T07:28:40.274Z,14.37
2017-05-09T07:29:40.297Z,14.62
2017-05-09T07:30:40.322Z,15.23
2017-05-09T07:31:54.656Z,15.44
2017-05-09T07:32:40.371Z,15.56
2017-05-09T07:34:40.116Z,15.29
2017-05-09T07:35:40.138Z,14.96
2017-05-09T07:36:40.472Z,14.91
2017-05-09T07:37:40.187Z,14.89
2017-05-09T07:38:40.519Z,14.78
2017-05-09T07:39:40.240Z,14.5
2017-05-09T07:40:40.567Z,14.51
2017-05-09T07:42:40.315Z,14.96
2017-05-09T07:43:40.338Z,15.07
2017-05-09T07:44:40.368Z,15.35
2017-05-09T07:45:40.689Z,15.5
2017-05-09T07:46:40.718Z,15.5
2017-05-09T07:47:55.356Z,15.57
2017-05-09T07:48:40.766Z,15.6
2017-05-09T07:49:40.792Z,15.68
2017-05-09T07:50:40.816Z,15.71
2017-05-09T07:51:40.840Z,14.95
2017-05-09T07:52:40.871Z,14.8
2017-05-09T07:53:55.513Z,15.35
2017-05-09T07:54:40.614Z,14.91
2017-05-09T07:55:40.641Z,15.06
2017-05-09T07:57:40.992Z,15.72
2017-05-09T07:58:41.017Z,15.49
2017-05-09T07:59:55.657Z,15.54
2017-05-09T08:00:41.070Z,15.01
2017-05-09T08:01:41.095Z,14.72
2017-05-09T08:02:41.165Z,14.52
2017-05-09T08:03:55.761Z,14.75
2017-05-09T08:04:40.893Z,14.91
2017-05-09T08:05:41.195Z,14.95
2017-05-09T08:06:41.221Z,14.92
2017-05-09T08:07:40.943Z,15.1
2017-05-09T08:08:41.272Z,15.16
2017-05-09T08:09:41.293Z,15.09
2017-05-09T08:10:41.321Z,15.1
2017-05-09T08:11:41.380Z,14.89
2017-05-09T08:12:41.376Z,14.68
2017-05-09T08:14:56.039Z,14.1
2017-05-09T08:15:41.446Z,14.15
2017-05-09T08:16:41.480Z,14.35
2017-05-09T08:17:41.498Z,14.68
2017-05-09T08:19:41.548Z,15.39
2017-05-09T08:20:41.573Z,15.69
2017-05-09T08:21:41.600Z,15.47
2017-05-09T08:22:41.627Z,15.43
2017-05-09T08:23:41.654Z,16.24
2017-05-09T08:24:41.681Z,16.31
2017-05-09T08:27:41.756Z,14.37
2017-05-09T08:28:41.779Z,14.27
2017-05-09T08:29:41.806Z,13.6
2017-05-09T08:30:41.828Z,14.35
2017-05-09T08:31:41.853Z,15.2
2017-05-09T08:32:41.889Z,15.67
2017-05-09T08:33:41.904Z,15.86
2017-05-09T08:34:41.932Z,16.05
2017-05-09T08:35:41.961Z,15.92
2017-05-09T08:36:41.984Z,16.01
2017-05-09T08:37:42.018Z,15.86
2017-05-09T08:38:42.031Z,16.14
2017-05-09T08:39:42.064Z,15.65
2017-05-09T08:40:42.127Z,15.46
2017-05-09T08:41:42.110Z,15.43
2017-05-09T08:42:42.139Z,14.99
2017-05-09T08:43:42.161Z,14.15
2017-05-09T08:44:56.806Z,14.21
2017-05-09T08:45:56.832Z,13.75
2017-05-09T08:46:42.239Z,13.63
2017-05-09T08:47:42.262Z,13.15
2017-05-09T08:49:42.008Z,13.05
2017-05-09T08:50:56.956Z,13.14
2017-05-09T08:51:42.366Z,12.74
2017-05-09T08:52:42.086Z,12.42
2017-05-09T08:53:42.111Z,12.38
2017-05-09T08:54:42.136Z,12.13
2017-05-09T08:55:42.158Z,12.05
2017-05-09T08:56:42.182Z,12.28
2017-05-09T08:57:42.508Z,12.46
2017-05-09T08:59:42.565Z,12.53
2017-05-09T09:00:42.275Z,12.64
2017-05-09T09:01:42.302Z,12.9
2017-05-09T09:02:57.244Z,13.23
2017-05-09T09:03:57.269Z,13.29
2017-05-09T09:04:57.291Z,13.63
2017-05-09T09:05:42.698Z,13.97
2017-05-09T09:06:57.338Z,14.6
2017-05-09T09:07:42.746Z,14.91
2017-05-09T09:08:42.770Z,15.16
2017-05-09T09:10:42.515Z,14.73
2017-05-09T09:11:42.844Z,14.62
2017-05-09T09:12:42.268Z,14.81
2017-05-09T09:16:57.278Z,15.09
2017-05-09T09:17:42.685Z,14.58
2017-05-09T09:18:57.326Z,14.62
2017-05-09T09:19:43.038Z,14.61
2017-05-09T09:20:43.065Z,14.65
2017-05-09T09:21:43.084Z,14.5
2017-05-09T09:22:57.726Z,14.54
2017-05-09T09:23:43.136Z,14.5
2017-05-09T09:24:43.160Z,14.55
2017-05-09T09:25:43.190Z,14.17
2017-05-09T09:26:43.211Z,14.04
2017-05-09T09:27:43.233Z,13.89
2017-05-09T09:28:43.559Z,13.96
2017-05-09T09:29:43.281Z,13.92
2017-05-09T09:30:43.305Z,13.81
2017-05-09T09:31:43.332Z,13.69
2017-05-09T09:32:43.357Z,13.29
2017-05-09T09:33:43.381Z,13.19
2017-05-09T09:34:43.400Z,13.22
2017-05-09T09:35:43.428Z,13.51
2017-05-09T09:36:43.459Z,13.62
2017-05-09T09:37:43.477Z,13.6
2017-05-09T09:38:58.115Z,14.04
2017-05-09T09:39:43.222Z,14.32
2017-05-09T09:41:43.570Z,15.35
2017-05-09T09:42:43.598Z,15.93
2017-05-09T09:43:43.620Z,16.09
2017-05-09T09:44:43.645Z,16.07
2017-05-09T09:45:43.668Z,16.24
2017-05-09T09:46:43.693Z,16.64
2017-05-09T09:47:43.722Z,16.28
2017-05-09T09:48:43.742Z,16.02
2017-05-09T09:49:43.772Z,15.86
2017-05-09T09:50:58.407Z,15.07
2017-05-09T09:51:43.817Z,15.06
2017-05-09T09:52:43.844Z,14.99
2017-05-09T09:53:58.486Z,15.43
2017-05-09T09:54:43.931Z,15.65
2017-05-09T09:55:43.924Z,16.25
2017-05-09T09:56:43.943Z,16.41
2017-05-09T09:57:43.667Z,16.52
2017-05-09T09:58:43.991Z,17.08
2017-05-09T09:59:44.012Z,17.74
2017-05-09T10:01:44.063Z,18.05
2017-05-09T10:02:44.091Z,18.36
2017-05-09T10:03:58.733Z,18.88
2017-05-09T10:04:44.139Z,18.88
2017-05-09T10:05:44.172Z,18.39
2017-05-09T10:06:58.807Z,17.78
2017-05-09T10:08:44.241Z,16.56
2017-05-09T10:09:44.269Z,16.07
2017-05-09T10:10:44.293Z,15.67
2017-05-09T10:11:44.324Z,15.23
2017-05-09T10:12:44.344Z,14.6
2017-05-09T10:13:44.368Z,14.29
2017-05-09T10:14:44.397Z,14.28
2017-05-09T10:16:44.486Z,14
2017-05-09T10:17:44.472Z,13.82
2017-05-09T10:19:44.525Z,13.2
2017-05-09T10:20:44.545Z,13.04
2017-05-09T10:21:44.565Z,12.56
2017-05-09T10:22:44.594Z,12.67
2017-05-09T10:23:44.616Z,12.64
2017-05-09T10:24:44.641Z,12.46
2017-05-09T10:25:59.282Z,12.07
2017-05-09T10:26:44.691Z,12.16
2017-05-09T10:27:44.715Z,12.13
2017-05-09T10:28:44.741Z,12.17
2017-05-09T10:29:44.465Z,12.29
2017-05-09T10:30:44.787Z,12.31
2017-05-09T10:32:44.833Z,11.79
2017-05-09T10:34:44.576Z,11.75
2017-05-09T10:35:44.905Z,11.73
2017-05-09T10:36:44.931Z,11.75
2017-05-09T10:37:59.567Z,11.76
2017-05-09T10:38:44.973Z,11.91
2017-05-09T10:39:59.613Z,12.02
2017-05-09T10:40:44.722Z,12.12
2017-05-09T10:41:59.661Z,12.35
2017-05-09T10:42:45.071Z,12.49
2017-05-09T10:43:45.091Z,12.42
2017-05-09T10:44:45.111Z,12.68
2017-05-09T10:45:45.140Z,12.54
2017-05-09T10:46:45.161Z,12.83
2017-05-09T10:47:45.191Z,12.79
2017-05-09T10:48:45.206Z,12.67
2017-05-09T10:49:59.851Z,12.38
2017-05-09T10:50:45.254Z,12.29
2017-05-09T10:51:59.899Z,12.52
2017-05-09T10:52:45.003Z,12.5
2017-05-09T10:53:45.328Z,12.29
2017-05-09T10:54:45.349Z,12.16
2017-05-09T10:55:45.371Z,11.49
2017-05-09T10:56:45.397Z,11.11
2017-05-09T10:58:00.031Z,10.6
2017-05-09T10:58:45.143Z,10.63
2017-05-09T10:59:45.462Z,10.99
2017-05-09T11:00:45.485Z,11.19
2017-05-09T11:01:45.208Z,11.33
2017-05-09T11:02:45.531Z,11.54
2017-05-09T11:04:45.576Z,11.51
2017-05-09T11:05:45.603Z,11.61
2017-05-09T11:07:59.960Z,11.57
2017-05-09T11:08:45.364Z,11.61
2017-05-09T11:09:45.395Z,11.54
2017-05-09T11:10:45.412Z,11.64
2017-05-09T11:11:45.739Z,11.47
2017-05-09T11:12:45.456Z,11.69
2017-05-09T11:14:00.407Z,11.83
2017-05-09T11:14:45.805Z,11.98
2017-05-09T11:15:45.228Z,11.99
2017-05-09T11:16:45.852Z,12.01
2017-05-09T11:17:45.873Z,12.05
2017-05-09T11:18:45.899Z,12.37
2017-05-09T11:19:45.616Z,12.5
2017-05-09T11:20:45.941Z,12.85
2017-05-09T11:22:45.991Z,13.19
2017-05-09T11:23:46.013Z,13.41
2017-05-09T11:26:00.678Z,13.67
2017-05-09T11:26:46.082Z,13.85
2017-05-09T11:27:46.104Z,14.03
2017-05-09T11:29:00.746Z,14.17
2017-05-09T11:29:46.187Z,14.17
2017-05-09T11:30:46.185Z,13.64
2017-05-09T11:31:46.200Z,14.1
2017-05-09T11:32:46.223Z,14.09
2017-05-09T11:33:46.246Z,14.04
2017-05-09T11:34:46.267Z,14.06
2017-05-09T11:35:46.293Z,13.96
2017-05-09T11:36:46.315Z,13.79
2017-05-09T11:37:46.344Z,13.25
2017-05-09T11:39:00.979Z,13.26
2017-05-09T11:39:46.385Z,12.82
2017-05-09T11:41:01.024Z,12.13
2017-05-09T11:42:01.047Z,11.82
2017-05-09T11:42:46.454Z,11.95
2017-05-09T11:43:46.478Z,12.16
2017-05-09T11:44:46.502Z,12.05
2017-05-09T11:45:46.527Z,12.2
2017-05-09T11:46:46.546Z,11.96
2017-05-09T11:48:46.595Z,12.29
2017-05-09T11:49:46.622Z,11.98
2017-05-09T11:50:46.340Z,11.64
2017-05-09T11:51:46.666Z,11.39
2017-05-09T11:52:46.687Z,11.22
2017-05-09T11:53:46.715Z,10.91
2017-05-09T11:54:46.735Z,10.86
2017-05-09T11:56:01.375Z,11.02
2017-05-09T11:56:46.781Z,11.1
2017-05-09T11:57:46.804Z,11.27
2017-05-09T11:58:46.827Z,11.32
2017-05-09T11:59:46.546Z,11.4
2017-05-09T12:01:01.488Z,11.28
2017-05-09T12:01:46.898Z,11.09
2017-05-09T12:02:46.919Z,10.97
2017-05-09T12:03:46.938Z,10.88
2017-05-09T12:04:46.964Z,11.06
2017-05-09T12:05:46.986Z,11.39
2017-05-09T12:07:46.727Z,11.72
2017-05-09T12:08:47.055Z,11.94
2017-05-09T12:09:47.084Z,12.12
2017-05-09T12:10:47.098Z,11.99
2017-05-09T12:11:47.158Z,12.1
2017-05-09T12:13:01.457Z,12.16
2017-05-09T12:13:47.173Z,12.35
2017-05-09T12:14:47.188Z,12.46
2017-05-09T12:15:47.212Z,12.49
2017-05-09T12:17:01.853Z,12.68
2017-05-09T12:17:47.262Z,12.68
2017-05-09T12:18:47.280Z,12.82
2017-05-09T12:19:47.302Z,12.89
2017-05-09T12:20:47.329Z,12.86
2017-05-09T12:21:47.348Z,12.89
2017-05-09T12:22:47.382Z,12.68
2017-05-09T12:23:47.392Z,12.59
2017-05-09T12:25:47.443Z,13.03
2017-05-09T12:26:47.466Z,13.22
2017-05-09T12:27:47.491Z,13.19
2017-05-09T12:29:02.126Z,12.92
2017-05-09T12:29:47.530Z,13.17
2017-05-09T12:30:47.552Z,13.49
2017-05-09T12:31:47.581Z,13.52
2017-05-09T12:33:02.216Z,13.48
2017-05-09T12:33:47.324Z,13.49
2017-05-09T12:34:47.645Z,13.55
2017-05-09T12:35:47.672Z,13.54
2017-05-09T12:36:47.693Z,13.46
2017-05-09T12:37:47.716Z,13.6
2017-05-09T12:38:47.745Z,13.63
2017-05-09T12:39:47.763Z,13.69
2017-05-09T12:41:47.811Z,13.08
2017-05-09T12:42:47.835Z,12.95
2017-05-09T12:44:02.169Z,13.23
2017-05-09T12:44:47.883Z,13.19
2017-05-09T12:46:02.518Z,13.08
2017-05-09T12:46:47.926Z,13.26
2017-05-09T12:47:47.947Z,13.29
2017-05-09T12:49:02.588Z,13.26
2017-05-09T12:49:47.995Z,13.32
2017-05-09T12:50:47.713Z,13.57
2017-05-09T12:51:48.041Z,13.26
2017-05-09T12:52:48.067Z,13.41
2017-05-09T12:53:48.086Z,13.51
2017-05-09T12:54:48.109Z,13.64
2017-05-09T12:55:47.829Z,13.66
2017-05-09T12:58:48.206Z,13.62
2017-05-09T13:00:02.540Z,13.6
2017-05-09T13:01:02.562Z,13.73
2017-05-09T13:01:48.272Z,13.69
2017-05-09T13:02:48.296Z,13.66
2017-05-09T13:04:02.940Z,13.81
2017-05-09T13:04:48.040Z,13.73
2017-05-09T13:05:48.367Z,13.59
2017-05-09T13:06:47.783Z,13.63
2017-05-09T13:07:48.415Z,13.77
2017-05-09T13:08:48.135Z,13.97
2017-05-09T13:10:48.483Z,13.88
2017-05-09T13:12:48.230Z,13.67
2017-05-09T13:13:48.568Z,13.82
2017-05-09T13:14:48.273Z,13.91
2017-05-09T13:15:48.297Z,13.97
2017-05-09T13:16:48.659Z,13.92
2017-05-09T13:17:48.647Z,13.62
2017-05-09T13:18:48.676Z,13.69
2017-05-09T13:19:48.704Z,13.6
2017-05-09T13:20:48.717Z,13.77
2017-05-09T13:21:48.739Z,13.89
2017-05-09T13:22:48.460Z,14.02
2017-05-09T13:23:48.785Z,13.89
2017-05-09T13:24:48.513Z,14.04
2017-05-09T13:25:48.533Z,14.03
2017-05-09T13:27:48.885Z,13.88
2017-05-09T13:28:48.902Z,13.91
2017-05-09T13:30:03.243Z,13.88
2017-05-09T13:30:48.956Z,13.75
2017-05-09T13:32:03.591Z,13.71
2017-05-09T13:32:48.392Z,13.96
2017-05-09T13:33:49.020Z,13.84
2017-05-09T13:34:48.740Z,13.97
2017-05-09T13:36:03.684Z,14.17
2017-05-09T13:36:48.785Z,14.36
2017-05-09T13:37:49.116Z,14.22
2017-05-09T13:38:49.138Z,14.2
2017-05-09T13:39:49.165Z,14.2
2017-05-09T13:40:49.186Z,14.06
2017-05-09T13:41:49.209Z,14.1
2017-05-09T13:43:49.257Z,13.92
2017-05-09T13:44:49.285Z,13.92
2017-05-09T13:46:49.325Z,13.97
2017-05-09T13:47:49.354Z,14.14
2017-05-09T13:49:03.987Z,13.97
2017-05-09T13:49:49.395Z,14.09
2017-05-09T13:50:49.457Z,14.21
2017-05-09T13:52:04.058Z,13.99
2017-05-09T13:52:49.467Z,13.92
2017-05-09T13:53:49.488Z,14.02
2017-05-09T13:54:49.511Z,13.91
2017-05-09T13:55:49.535Z,13.89
2017-05-09T13:56:49.253Z,13.99
2017-05-09T13:57:49.586Z,13.84
2017-05-09T14:00:49.660Z,14.18
2017-05-09T14:01:49.679Z,14.15
2017-05-09T14:02:49.698Z,14.39
2017-05-09T14:04:04.338Z,14.36
2017-05-09T14:05:04.360Z,14.24
2017-05-09T14:05:49.766Z,14.29
2017-05-09T14:06:49.791Z,14.32
2017-05-09T14:08:04.430Z,14.33
2017-05-09T14:08:49.841Z,14.37
2017-05-09T14:09:49.865Z,14.43
2017-05-09T14:10:49.883Z,14.24
2017-05-09T14:11:49.909Z,14.42
2017-05-09T14:12:49.933Z,14.32